createdAt,value
2022-08-29T00:08:31.384Z,28.087
2022-08-29T00:23:33.621Z,29.762
2022-08-29T00:38:35.868Z,30.671
2022-08-29T00:53:38.109Z,31.07
2022-08-29T01:08:40.341Z,30.479
2022-08-29T01:23:42.572Z,31.717
2022-08-29T01:38:44.807Z,32.398
2022-08-29T01:53:47.022Z,32.314
2022-08-29T02:08:49.196Z,33.916
2022-08-29T02:23:51.612Z,34.974
2022-08-29T02:38:53.840Z,36.713
2022-08-29T02:53:56.148Z,36.519
2022-08-29T03:08:58.404Z,39.111
2022-08-29T03:24:00.830Z,40.136
2022-08-29T03:39:03.039Z,39.991
2022-08-29T03:54:05.253Z,41.334
2022-08-29T04:09:07.724Z,41.991
2022-08-29T04:24:09.977Z,41.129
2022-08-29T04:39:12.221Z,43.097
2022-08-29T04:54:15.692Z,46.045
2022-08-29T05:09:18.145Z,46.014
2022-08-29T05:24:20.296Z,45.538
2022-08-29T05:39:22.485Z,48.703
2022-08-29T05:54:24.688Z,45.833
2022-08-29T06:09:32.653Z,46.329
2022-08-29T06:24:34.818Z,49.187
2022-08-29T06:39:37.047Z,47.059
2022-08-29T06:54:39.261Z,47.745
2022-08-29T07:09:41.708Z,50.25
2022-08-29T07:24:44.038Z,49.979
2022-08-29T07:39:46.261Z,51.092
2022-08-29T07:54:48.550Z,52.087
2022-08-29T08:09:50.773Z,49.411
2022-08-29T08:24:52.972Z,52.07
2022-08-29T08:39:55.373Z,53.493
2022-08-29T08:54:57.630Z,54.387
2022-08-29T09:09:59.836Z,51.54
2022-08-29T09:25:02.030Z,54.27
2022-08-29T09:40:04.362Z,57.478
2022-08-29T09:55:06.591Z,55.369
2022-08-29T10:10:08.795Z,57.692
2022-08-29T10:25:11.190Z,55.68
2022-08-29T10:40:17.563Z,56.78
2022-08-29T10:55:20.173Z,60.146
2022-08-29T11:10:22.334Z,59.457
2022-08-29T11:25:24.674Z,56.381
2022-08-29T11:40:48.405Z,61.922
2022-08-29T11:55:51.254Z,57.548
2022-08-29T12:10:53.471Z,55.811
2022-08-29T12:26:15.819Z,58.343
2022-08-29T12:41:24.060Z,60.459
2022-08-29T12:56:26.289Z,60.089
2022-08-29T13:11:28.541Z,60.649
2022-08-29T13:26:30.812Z,60.489
2022-08-29T13:41:33.033Z,60.578
2022-08-29T13:56:35.296Z,58.654
2022-08-29T14:11:37.477Z,57.595
2022-08-29T14:26:39.640Z,31.533
2022-08-29T14:41:41.931Z,50.748
2022-08-29T14:56:48.845Z,63.66
2022-08-29T15:11:52.170Z,50.242
2022-08-29T15:26:54.479Z,45.145
2022-08-29T15:41:56.693Z,52.519
2022-08-29T15:56:59.010Z,50.592
2022-08-29T16:12:01.304Z,47.363
2022-08-29T16:27:03.526Z,41.151
2022-08-29T16:42:05.714Z,40.092
2022-08-29T16:57:07.924Z,41.443
2022-08-29T17:12:10.097Z,40.106
2022-08-29T17:27:12.311Z,38.836
2022-08-29T17:42:14.776Z,40.152
2022-08-29T17:57:17.117Z,37.161
2022-08-29T18:12:19.323Z,36.319
2022-08-29T18:27:21.542Z,34.74
2022-08-29T18:42:39.303Z,36.238
2022-08-29T18:57:43.003Z,35.281
2022-08-29T19:12:46.929Z,31.95
2022-08-29T19:27:49.209Z,32.672
2022-08-29T19:42:51.418Z,34.195
2022-08-29T19:57:53.629Z,32.665
2022-08-29T20:12:55.830Z,31.642
2022-08-29T20:27:58.195Z,29.81
2022-08-29T20:43:00.393Z,25.181
2022-08-29T20:58:02.684Z,26.283
2022-08-29T21:13:05.135Z,25.816
2022-08-29T21:28:07.349Z,22.549
2022-08-29T21:43:09.934Z,22.651
2022-08-29T21:58:15.486Z,23.319
2022-08-29T22:13:17.971Z,21.105
2022-08-29T22:28:20.407Z,21.422
2022-08-29T22:43:22.696Z,20.619
2022-08-29T22:58:24.891Z,21.013
2022-08-29T23:13:27.083Z,21.419
2022-08-29T23:28:33.419Z,20.436
2022-08-29T23:43:36.754Z,21.772
2022-08-29T23:58:39.371Z,20.498
